Time;durP1;ratioP1;P1;durP2;ratioP2;P2;SDS_P1;SDS_P2;PMS_P1;PMS_P2;Temp;Humidity;BMP_temperature;BMP_pressure;BME280_temperature;BME280_humidity;BME280_pressure;Samples;Min_cycle;Max_cycle;Signal;HPM_P1;HPM_P2
2022/05/26 00:01:45;;;;;;;4.07;1.20;;;18.90;99.90;;;;;;4759323;30;20070;-92
2022/05/26 00:04:12;;;;;;;17.58;8.05;;;18.90;99.90;;;;;;4759671;30;20070;-89
2022/05/26 00:06:38;;;;;;;8.70;3.03;;;18.90;99.90;;;;;;4759162;30;20043;-90
2022/05/26 00:09:05;;;;;;;7.05;2.10;;;18.80;99.90;;;;;;4773961;30;20034;-90
2022/05/26 00:11:36;;;;;;;11.48;4.78;;;18.90;99.90;;;;;;4759603;30;20066;-90
2022/05/26 00:14:09;;;;;;;6.13;1.70;;;18.90;99.90;;;;;;4759146;30;20039;-89
2022/05/26 00:16:43;;;;;;;4.15;2.03;;;18.90;99.90;;;;;;4759069;30;20443;-91
2022/05/26 00:19:10;;;;;;;;;;;18.90;99.90;;;;;;4759956;30;20395;-90
2022/05/26 00:21:37;;;;;;;8.30;2.70;;;19.00;99.90;;;;;;4773888;30;19913;-89
2022/05/26 00:24:05;;;;;;;5.50;2.28;;;18.90;99.90;;;;;;4759191;30;20028;-91
2022/05/26 00:26:32;;;;;;;3.25;1.17;;;19.00;99.90;;;;;;4758863;30;20043;-90
2022/05/26 00:28:59;;;;;;;7.35;2.58;;;19.00;99.90;;;;;;4758935;30;20093;-91
2022/05/26 00:31:26;;;;;;;6.40;1.92;;;18.90;99.90;;;;;;4758763;30;20031;-90
2022/05/26 00:33:53;;;;;;;5.70;1.58;;;18.90;99.90;;;;;;4758843;30;20038;-90
2022/05/26 00:36:38;;;;;;;3.47;1.45;;;18.90;99.90;;;;;;4758788;30;20035;-90
2022/05/26 00:39:16;;;;;;;5.53;1.30;;;18.90;99.90;;;;;;4759075;30;20541;-90
2022/05/26 00:41:55;;;;;;;2.88;1.15;;;18.90;99.90;;;;;;4758504;30;20105;-90
2022/05/26 00:44:23;;;;;;;2.67;1.25;;;18.80;99.90;;;;;;4758771;30;20047;-89
2022/05/26 00:46:56;;;;;;;3.10;1.35;;;18.70;99.90;;;;;;4758303;30;20138;-93
2022/05/26 00:49:44;;;;;;;4.15;1.30;;;18.70;99.90;;;;;;4773328;30;20486;-90
2022/05/26 00:52:26;;;;;;;7.53;1.50;;;18.80;99.90;;;;;;4758284;29;20043;-91
2022/05/26 00:54:54;;;;;;;4.97;1.20;;;18.80;99.90;;;;;;4758474;30;20077;-92
2022/05/26 00:57:23;;;;;;;3.83;1.17;;;18.80;99.90;;;;;;4758785;29;20031;-89
2022/05/26 01:00:19;;;;;;;5.40;1.60;;;18.80;99.90;;;;;;4758623;30;20046;-90
2022/05/26 01:03:02;;;;;;;3.05;1.10;;;18.80;99.90;;;;;;4758453;30;20119;-90
2022/05/26 01:05:38;;;;;;;7.53;1.70;;;18.80;99.90;;;;;;4773000;30;20047;-92
2022/05/26 01:08:10;;;;;;;5.75;1.48;;;18.80;99.90;;;;;;4758489;30;20032;-89
2022/05/26 01:10:37;;;;;;;8.95;1.83;;;18.70;99.90;;;;;;4758315;30;20502;-90
2022/05/26 01:13:04;;;;;;;2.97;1.50;;;18.60;99.90;;;;;;4758300;30;20130;-90
2022/05/26 01:15:37;;;;;;;5.57;1.23;;;18.60;99.90;;;;;;4758403;30;20040;-91
2022/05/26 01:18:18;;;;;;;3.47;1.50;;;18.50;99.90;;;;;;4758570;30;20098;-91
2022/05/26 01:21:12;;;;;;;4.10;1.60;;;18.40;99.90;;;;;;4758108;30;20039;-90
2022/05/26 01:23:45;;;;;;;2.42;1.20;;;18.40;99.90;;;;;;4758173;30;20031;-90
2022/05/26 01:26:29;;;;;;;5.00;1.45;;;18.40;99.90;;;;;;4773076;30;20055;-92
2022/05/26 01:29:14;;;;;;;8.23;1.55;;;18.40;99.90;;;;;;4758145;30;20035;-91
2022/05/26 01:31:57;;;;;;;2.17;1.25;;;18.30;99.90;;;;;;4773093;30;20035;-90
2022/05/26 01:34:48;;;;;;;3.67;1.23;;;18.20;99.90;;;;;;4758527;30;20073;-88
2022/05/26 01:37:48;;;;;;;4.25;1.65;;;18.10;99.90;;;;;;4773038;30;20032;-91
2022/05/26 01:40:23;;;;;;;4.88;1.55;;;18.10;99.90;;;;;;4757982;30;20035;-91
2022/05/26 01:43:14;;;;;;;7.68;1.45;;;18.00;99.90;;;;;;4758795;30;20055;-90
2022/05/26 01:46:00;;;;;;;5.07;1.60;;;17.90;99.90;;;;;;4772706;30;20083;-92
2022/05/26 01:48:35;;;;;;;3.88;1.38;;;17.90;99.90;;;;;;4772820;30;20039;-92
2022/05/26 01:51:27;;;;;;;7.15;1.80;;;17.90;99.90;;;;;;4758031;30;20040;-90
2022/05/26 01:54:22;;;;;;;4.22;1.20;;;18.00;99.90;;;;;;4758170;30;20043;-90
2022/05/26 01:57:11;;;;;;;1.70;1.27;;;18.00;99.90;;;;;;4772999;30;20476;-91
2022/05/26 01:59:45;;;;;;;6.03;1.85;;;18.10;99.90;;;;;;4775260;30;20486;-89
2022/05/26 02:02:22;;;;;;;3.88;1.23;;;18.30;99.90;;;;;;4761236;30;20063;-90
2022/05/26 02:04:58;;;;;;;7.38;1.50;;;18.40;99.90;;;;;;4761219;30;20035;-93
2022/05/26 02:07:35;;;;;;;7.35;2.17;;;18.50;99.90;;;;;;4761314;30;20189;-92
2022/05/26 02:10:08;;;;;;;4.63;1.42;;;18.50;99.90;;;;;;4761743;30;20473;-91
2022/05/26 02:12:43;;;;;;;4.72;1.55;;;18.60;99.90;;;;;;4761393;30;20039;-91
2022/05/26 02:15:21;;;;;;;6.72;1.70;;;18.60;99.90;;;;;;4761314;30;20394;-91
2022/05/26 02:17:59;;;;;;;4.88;1.58;;;18.60;99.90;;;;;;4761113;30;20069;-93
2022/05/26 02:20:46;;;;;;;7.03;1.70;;;18.60;99.90;;;;;;4760898;30;20115;-90
2022/05/26 02:23:39;;;;;;;7.88;1.40;;;18.60;99.90;;;;;;4760855;30;20032;-91
2022/05/26 02:26:08;;;;;;;4.28;1.80;;;18.70;99.90;;;;;;4707427;30;20415;-92
2022/05/26 02:31:26;;;;;;;7.63;1.60;;;18.60;99.90;;;;;;4722473;30;20083;-90
2022/05/26 02:34:00;;;;;;;4.38;1.60;;;18.60;99.90;;;;;;4707567;30;20036;-92
2022/05/26 02:36:35;;;;;;;3.63;1.50;;;18.60;99.90;;;;;;4707517;30;20131;-90
2022/05/26 02:39:04;;;;;;;5.38;1.95;;;18.50;99.90;;;;;;4707507;30;20099;-90
2022/05/26 02:41:32;;;;;;;6.50;1.73;;;18.50;99.90;;;;;;4706937;30;20045;-93
2022/05/26 02:44:00;;;;;;;5.38;1.98;;;18.40;99.90;;;;;;4707443;30;20044;-91
2022/05/26 02:46:52;;;;;;;7.90;1.92;;;18.40;99.90;;;;;;4707189;30;20608;-91
2022/05/26 02:50:03;;;;;;;6.32;1.45;;;18.30;99.90;;;;;;4721899;30;20140;-91
2022/05/26 02:52:59;;;;;;;4.97;1.73;;;18.10;99.90;;;;;;4694111;30;20048;-90
2022/05/26 02:55:37;;;;;;;3.17;1.33;;;17.90;99.90;;;;;;4721517;30;20109;-92
2022/05/26 02:58:19;;;;;;;8.00;1.85;;;17.90;99.90;;;;;;4707209;30;20041;-90
2022/05/26 03:01:07;;;;;;;7.65;1.60;;;17.80;99.90;;;;;;4707105;30;20035;-90
2022/05/26 03:04:19;;;;;;;7.75;2.10;;;17.80;99.90;;;;;;4749650;30;20130;-89
2022/05/26 03:06:59;;;;;;;3.10;1.80;;;17.90;99.90;;;;;;4706886;30;20466;-90
2022/05/26 03:09:27;;;;;;;8.10;2.00;;;17.80;99.90;;;;;;4706890;30;20508;-92
2022/05/26 03:11:57;;;;;;;6.47;1.92;;;17.80;99.90;;;;;;4706986;30;20044;-90
2022/05/26 03:14:26;;;;;;;6.20;1.83;;;17.80;99.90;;;;;;4706994;30;20036;-91
2022/05/26 03:16:54;;;;;;;6.53;1.63;;;17.70;99.90;;;;;;4706803;30;20142;-91
2022/05/26 03:19:21;;;;;;;4.70;2.00;;;17.70;99.90;;;;;;4706679;30;20119;-91
2022/05/26 03:21:48;;;;;;;5.22;1.55;;;17.70;99.90;;;;;;4706729;30;20036;-91
2022/05/26 03:24:15;;;;;;;4.47;1.77;;;17.60;99.90;;;;;;4706974;30;20032;-90
2022/05/26 03:26:45;;;;;;;5.38;2.08;;;17.60;99.90;;;;;;4706853;30;20060;-93
2022/05/26 03:29:11;;;;;;;5.75;2.10;;;17.60;99.90;;;;;;4706618;30;20447;-90
2022/05/26 03:31:38;;;;;;;5.18;1.88;;;17.60;99.90;;;;;;4706639;30;20049;-93
2022/05/26 03:42:21;;;;;;;5.07;2.22;;;17.70;99.90;;;;;;4730550;30;20047;-90
2022/05/26 03:44:48;;;;;;;7.25;2.40;;;17.80;99.90;;;;;;4774429;30;20107;-91
2022/05/26 03:47:15;;;;;;;4.10;2.10;;;17.90;99.90;;;;;;4759448;30;20039;-91
2022/05/26 03:49:42;;;;;;;4.10;2.00;;;18.00;99.90;;;;;;4759550;30;20042;-90
2022/05/26 03:52:09;;;;;;;6.75;2.20;;;18.10;99.90;;;;;;4759781;30;20027;-91
2022/05/26 03:54:36;;;;;;;7.70;1.70;;;18.10;99.90;;;;;;4759390;30;20088;-91
2022/05/26 03:57:03;;;;;;;5.32;2.00;;;18.20;99.90;;;;;;4759383;30;20031;-92
2022/05/26 03:59:32;;;;;;;4.53;1.90;;;18.20;99.90;;;;;;4759779;30;20031;-89
2022/05/26 04:02:00;;;;;;;5.53;2.13;;;18.40;99.90;;;;;;4759237;30;20135;-90
2022/05/26 04:04:27;;;;;;;3.78;2.22;;;18.50;99.90;;;;;;4759275;30;20031;-92
2022/05/26 04:06:53;;;;;;;6.38;2.38;;;18.50;99.90;;;;;;4759155;30;20074;-89
2022/05/26 04:09:20;;;;;;;11.30;3.03;;;18.60;99.90;;;;;;4759145;30;20035;-91
2022/05/26 04:11:47;;;;;;;8.10;3.65;;;18.70;99.90;;;;;;4759330;30;20097;-91
2022/05/26 04:14:13;;;;;;;8.63;3.17;;;18.80;99.90;;;;;;4758909;30;20023;-90
2022/05/26 04:16:40;;;;;;;7.22;2.70;;;18.90;99.90;;;;;;4759165;30;20040;-93
2022/05/26 04:19:07;;;;;;;6.55;3.15;;;19.10;99.90;;;;;;4759157;30;20039;-89
2022/05/26 04:21:35;;;;;;;7.60;2.30;;;19.40;99.90;;;;;;4758621;30;20036;-89
2022/05/26 04:24:01;;;;;;;6.18;2.63;;;19.60;99.90;;;;;;4758967;30;20038;-91
2022/05/26 04:26:29;;;;;;;7.75;2.60;;;19.80;99.90;;;;;;4758770;29;20130;-91
2022/05/26 04:29:13;;;;;;;5.60;2.47;;;20.00;99.90;;;;;;4758994;30;20042;-92
2022/05/26 04:31:41;;;;;;;7.80;2.33;;;20.30;99.90;;;;;;4759206;30;20406;-90
2022/05/26 04:34:08;;;;;;;6.72;2.83;;;20.80;99.90;;;;;;4758682;30;20038;-91
2022/05/26 04:36:35;;;;;;;9.40;1.90;;;21.30;99.90;;;;;;4758933;30;20035;-90
2022/05/26 04:39:02;;;;;;;4.00;1.67;;;21.70;99.90;;;;;;4758993;30;20063;-91
2022/05/26 04:41:28;;;;;;;8.30;2.03;;;22.30;99.90;;;;;;4758492;30;20074;-92
2022/05/26 04:44:06;;;;;;;4.97;2.05;;;22.90;99.90;;;;;;4758832;30;20413;-91
2022/05/26 04:46:33;;;;;;;8.10;2.30;;;23.40;99.90;;;;;;4758606;30;20133;-90
2022/05/26 04:49:00;;;;;;;3.55;1.90;;;23.90;99.90;;;;;;4758636;30;20034;-93
2022/05/26 04:51:27;;;;;;;5.38;1.92;;;24.20;99.90;;;;;;4759084;30;20039;-90
2022/05/26 04:53:54;;;;;;;7.28;2.05;;;24.70;99.90;;;;;;4758590;30;20028;-90
2022/05/26 04:56:22;;;;;;;5.07;1.73;;;25.00;99.90;;;;;;4758632;30;20493;-94
2022/05/26 04:58:51;;;;;;;5.20;1.80;;;25.70;99.90;;;;;;4758427;30;20035;-90
2022/05/26 05:01:22;;;;;;;5.00;1.60;;;26.00;99.90;;;;;;4758603;30;20529;-91
2022/05/26 05:03:50;;;;;;;7.93;2.22;;;25.50;99.90;;;;;;4756512;30;20058;-90
2022/05/26 05:06:17;;;;;;;6.47;2.35;;;26.10;99.90;;;;;;4758268;30;20043;-90
2022/05/26 05:08:47;;;;;;;6.05;2.72;;;26.40;99.90;;;;;;4754573;30;20114;-90
2022/05/26 05:11:14;;;;;;;6.97;3.60;;;27.40;99.90;;;;;;4762201;30;20103;-91
2022/05/26 05:13:43;;;;;;;9.00;4.10;;;27.50;99.90;;;;;;4780790;30;20027;-90
2022/05/26 05:16:27;;;;;;;10.63;4.78;;;27.70;99.90;;;;;;4791988;29;20042;-91
2022/05/26 05:19:05;;;;;;;7.45;4.00;;;27.90;99.90;;;;;;4791127;29;20488;-90
2022/05/26 05:21:42;;;;;;;8.00;3.13;;;28.60;99.90;;;;;;4763985;30;20126;-91
2022/05/26 05:24:27;;;;;;;5.07;2.60;;;29.00;99.90;;;;;;4763823;30;20065;-89
2022/05/26 05:27:01;;;;;;;7.55;3.08;;;29.20;99.90;;;;;;4761931;30;20130;-91
2022/05/26 05:29:35;;;;;;;7.82;2.42;;;29.50;99.90;;;;;;4764357;30;20047;-88
2022/05/26 05:32:19;;;;;;;5.90;3.05;;;29.70;99.90;;;;;;4765259;30;20090;-92
2022/05/26 05:35:02;;;;;;;3.20;2.90;;;30.00;99.90;;;;;;4781515;30;20073;-92
2022/05/26 05:37:33;;;;;;;3.43;2.67;;;30.40;99.90;;;;;;4774413;30;20187;-88
2022/05/26 05:40:01;;;;;;;6.68;3.38;;;29.80;99.90;;;;;;4767199;30;20091;-90
2022/05/26 05:42:29;;;;;;;5.50;3.88;;;29.80;99.90;;;;;;4796976;29;20501;-89
2022/05/26 05:44:58;;;;;;;4.40;4.00;;;30.20;99.90;;;;;;4766806;30;20066;-92
2022/05/26 05:47:25;;;;;;;8.00;5.22;;;30.10;99.90;;;;;;4795228;29;20027;-91
2022/05/26 05:49:52;;;;;;;6.57;5.95;;;30.10;99.90;;;;;;4797804;29;20036;-90
2022/05/26 05:52:24;;;;;;;8.73;5.65;;;30.30;99.90;;;;;;4764574;30;20058;-93
2022/05/26 05:54:51;;;;;;;6.32;5.53;;;30.90;99.90;;;;;;4780471;30;20030;-89
2022/05/26 05:57:18;;;;;;;5.72;5.22;;;31.50;99.90;;;;;;4795496;29;20502;-93
2022/05/26 05:59:45;;;;;;;9.57;5.00;;;31.50;99.90;;;;;;4764771;30;20398;-93
2022/05/26 06:02:11;;;;;;;5.53;4.97;;;31.80;99.90;;;;;;4796250;29;20039;-91
2022/05/26 06:04:44;;;;;;;5.65;4.93;;;31.60;99.90;;;;;;4764607;30;20063;-91
2022/05/26 06:07:19;;;;;;;6.30;5.03;;;31.90;99.90;;;;;;4759286;30;20513;-93
2022/05/26 06:09:47;;;;;;;5.63;4.60;;;31.70;99.90;;;;;;4757523;30;20032;-92
2022/05/26 06:12:15;;;;;;;4.50;4.20;;;31.50;99.90;;;;;;4760772;30;20503;-93
2022/05/26 06:14:42;;;;;;;5.10;4.70;;;31.20;99.90;;;;;;4771988;30;20112;-89
2022/05/26 06:17:10;;;;;;;6.20;5.57;;;31.60;99.90;;;;;;4772916;30;20490;-92
2022/05/26 06:19:39;;;;;;;6.22;5.78;;;31.50;99.90;;;;;;4774056;30;20046;-92
2022/05/26 06:22:12;;;;;;;6.35;5.85;;;31.90;99.90;;;;;;4757832;30;20031;-91
2022/05/26 06:24:40;;;;;;;7.72;6.82;;;32.20;99.90;;;;;;4758515;30;20115;-90
2022/05/26 06:29:55;;;;;;;8.02;6.78;;;32.90;99.90;;;;;;4757795;30;20066;-91
2022/05/26 06:37:55;;;;;;;9.75;7.85;;;32.20;99.90;;;;;;4757483;30;20055;-91
2022/05/26 06:40:22;;;;;;;12.57;8.95;;;33.30;99.90;;;;;;4757974;30;20040;-90
2022/05/26 06:42:49;;;;;;;10.80;8.60;;;33.90;99.90;;;;;;4757401;30;20097;-93
2022/05/26 06:45:19;;;;;;;10.90;9.48;;;34.40;99.90;;;;;;4742873;30;20056;-90
2022/05/26 06:47:46;;;;;;;10.30;8.50;;;34.30;99.90;;;;;;4757817;30;20486;-91
2022/05/26 06:50:14;;;;;;;11.55;8.13;;;34.60;99.90;;;;;;4772442;30;20120;-91
2022/05/26 06:52:41;;;;;;;10.52;8.45;;;35.10;99.90;;;;;;4772674;30;20046;-93
2022/05/26 06:55:09;;;;;;;8.55;7.75;;;35.40;99.90;;;;;;4757279;30;20506;-90
2022/05/26 06:57:36;;;;;;;8.40;7.80;;;34.90;99.90;;;;;;4773184;30;20036;-92
2022/05/26 07:00:08;;;;;;;9.02;8.35;;;35.20;99.90;;;;;;4772387;30;20032;-89
2022/05/26 07:02:35;;;;;;;10.23;7.63;;;35.60;99.90;;;;;;4757425;30;20559;-91
2022/05/26 07:05:05;;;;;;;9.32;8.63;;;35.90;99.90;;;;;;4771475;30;20150;-90
2022/05/26 07:07:34;;;;;;;10.65;9.70;;;36.50;99.90;;;;;;4771074;30;20059;-90
2022/05/26 07:10:03;;;;;;;9.82;9.00;;;36.10;99.90;;;;;;4755254;30;20036;-90
2022/05/26 07:12:30;;;;;;;8.75;7.68;;;35.90;99.90;;;;;;4756293;30;20039;-88
2022/05/26 07:14:58;;;;;;;8.40;7.13;;;35.60;99.90;;;;;;4771194;30;20070;-90
2022/05/26 07:17:25;;;;;;;8.35;7.63;;;35.80;99.90;;;;;;4771079;30;20040;-89
2022/05/26 07:19:54;;;;;;;8.25;7.55;;;35.70;99.90;;;;;;4757759;30;20040;-91
2022/05/26 07:22:22;;;;;;;10.25;8.57;;;35.80;99.90;;;;;;4771056;30;20039;-91
2022/05/26 07:24:51;;;;;;;8.95;8.05;;;35.10;99.90;;;;;;4756138;30;20039;-88
2022/05/26 07:27:19;;;;;;;8.13;7.28;;;34.80;99.90;;;;;;4756242;30;20051;-91
2022/05/26 07:29:45;;;;;;;7.50;6.95;;;34.90;99.90;;;;;;4770904;30;20048;-91
2022/05/26 07:32:12;;;;;;;7.63;6.90;;;34.80;99.90;;;;;;4756114;30;20429;-92
2022/05/26 07:34:38;;;;;;;9.15;8.55;;;35.10;99.90;;;;;;4770859;30;20398;-90
2022/05/26 07:42:38;;;;;;;10.73;9.80;;;36.20;99.50;;;;;;4756260;30;20490;-90
2022/05/26 07:45:08;;;;;;;11.57;10.00;;;35.60;99.80;;;;;;4756335;30;20092;-91
2022/05/26 07:47:36;;;;;;;11.85;10.75;;;35.60;99.60;;;;;;4756794;30;20048;-88
2022/05/26 07:50:06;;;;;;;11.13;10.30;;;36.10;98.10;;;;;;4756494;30;20027;-88
2022/05/26 07:52:39;;;;;;;11.60;10.60;;;36.30;97.20;;;;;;4756335;30;20073;-89
2022/05/26 07:58:39;;;;;;;11.75;10.90;;;35.10;95.00;;;;;;5298693;24;20067;-93
2022/05/26 12:15:33;;;;;;;7.10;4.32;;;29.80;99.90;;;;;;5612522;24;21172;-94
2022/05/26 12:17:59;;;;;;;7.97;3.40;;;30.40;99.90;;;;;;4775378;24;20071;-92
2022/05/26 12:20:27;;;;;;;5.25;3.60;;;30.20;99.90;;;;;;4792331;29;20035;-90
2022/05/26 12:22:53;;;;;;;4.65;3.08;;;30.10;99.90;;;;;;4776987;29;20035;-92
2022/05/26 12:25:29;;;;;;;6.97;3.13;;;30.20;99.90;;;;;;4791781;29;20038;-91
2022/05/26 12:27:57;;;;;;;4.65;2.72;;;29.60;99.90;;;;;;4791844;29;20039;-92
2022/05/26 12:30:49;;;;;;;4.82;2.97;;;29.00;99.90;;;;;;4791671;29;20033;-92
2022/05/26 12:33:19;;;;;;;7.10;2.83;;;29.10;99.90;;;;;;4791447;29;20039;-92
2022/05/26 12:36:07;;;;;;;5.35;2.97;;;28.80;99.90;;;;;;4791576;29;20034;-90
2022/05/26 12:39:00;;;;;;;3.55;2.55;;;29.10;99.90;;;;;;4791831;29;20047;-91
2022/05/26 12:41:38;;;;;;;3.65;2.55;;;29.30;99.90;;;;;;4761119;29;20121;-91
2022/05/26 12:44:29;;;;;;;3.17;2.80;;;29.50;99.90;;;;;;4791158;29;20045;-91
2022/05/26 12:46:56;;;;;;;2.95;2.70;;;29.70;99.90;;;;;;4791561;29;20042;-92
2022/05/26 12:49:44;;;;;;;4.53;3.47;;;29.40;99.90;;;;;;4791198;29;20038;-90
2022/05/26 12:52:23;;;;;;;4.65;2.80;;;29.20;99.90;;;;;;4776379;29;20039;-92
2022/05/26 12:54:54;;;;;;;6.20;2.70;;;29.30;99.90;;;;;;4791200;29;20046;-92
2022/05/26 12:57:24;;;;;;;4.55;2.75;;;29.40;99.90;;;;;;4792052;29;20042;-93
2022/05/26 12:59:51;;;;;;;3.78;2.72;;;29.40;99.90;;;;;;4791540;29;20077;-91
2022/05/26 13:02:30;;;;;;;3.92;2.85;;;29.80;99.90;;;;;;4791372;29;20131;-93
2022/05/26 13:05:01;;;;;;;3.72;2.90;;;29.80;99.90;;;;;;4790945;29;20042;-90
2022/05/26 13:07:28;;;;;;;4.95;2.70;;;29.60;99.90;;;;;;4806054;29;20043;-93
2022/05/26 13:09:54;;;;;;;4.97;2.45;;;29.50;99.90;;;;;;4791906;29;20030;-91
2022/05/26 13:12:25;;;;;;;6.22;3.50;;;29.60;99.90;;;;;;4791318;29;20070;-92
2022/05/26 13:14:58;;;;;;;3.42;3.10;;;29.80;99.90;;;;;;4791018;29;20493;-91
2022/05/26 13:17:27;;;;;;;5.70;3.30;;;29.70;99.90;;;;;;4791259;29;20074;-92
2022/05/26 13:19:56;;;;;;;4.80;2.95;;;29.90;99.90;;;;;;4790700;29;20134;-91
2022/05/26 13:22:26;;;;;;;5.53;2.50;;;29.90;99.90;;;;;;4790886;29;20035;-91
2022/05/26 13:25:10;;;;;;;6.03;2.80;;;29.80;99.90;;;;;;4791183;29;20027;-92
2022/05/26 13:27:47;;;;;;;4.10;2.80;;;29.40;99.90;;;;;;4790958;29;20039;-91
2022/05/26 13:33:08;;;;;;;3.97;2.53;;;29.20;99.90;;;;;;4790968;29;20035;-92
2022/05/26 13:35:44;;;;;;;3.40;2.97;;;29.20;99.90;;;;;;4790995;29;20046;-92
2022/05/26 13:38:35;;;;;;;3.80;2.60;;;29.20;99.90;;;;;;4791032;29;20581;-92
2022/05/26 13:41:03;;;;;;;6.78;2.40;;;29.00;99.90;;;;;;4790932;29;20092;-92
2022/05/26 13:43:32;;;;;;;4.97;2.85;;;28.70;99.90;;;;;;4790663;29;20108;-92
2022/05/26 13:46:00;;;;;;;3.08;2.63;;;28.60;99.90;;;;;;4790956;29;20038;-92
2022/05/26 13:48:37;;;;;;;3.88;2.58;;;28.70;99.90;;;;;;4792325;29;20035;-91
2022/05/26 13:51:22;;;;;;;3.67;3.00;;;29.10;99.90;;;;;;4791788;29;20556;-90
2022/05/26 13:53:50;;;;;;;3.40;3.13;;;29.10;99.90;;;;;;4791017;29;20062;-93
2022/05/26 13:56:34;;;;;;;3.35;3.00;;;29.20;99.90;;;;;;4794082;29;20066;-91
2022/05/26 13:59:10;;;;;;;5.40;3.20;;;29.10;99.90;;;;;;4794140;29;20046;-91
2022/05/26 14:01:41;;;;;;;6.18;3.00;;;29.20;99.90;;;;;;4794147;29;20035;-92
2022/05/26 14:04:29;;;;;;;4.10;3.65;;;29.30;99.90;;;;;;4794160;29;20397;-91
2022/05/26 14:06:55;;;;;;;6.57;3.05;;;29.50;99.90;;;;;;4793903;29;20038;-90
2022/05/26 14:09:27;;;;;;;6.28;2.80;;;29.30;99.90;;;;;;4794243;29;20030;-92
2022/05/26 14:12:03;;;;;;;5.22;2.65;;;29.20;99.90;;;;;;4794225;29;20045;-91
2022/05/26 14:14:39;;;;;;;3.22;2.70;;;29.00;99.90;;;;;;4794015;29;20607;-90
2022/05/26 14:17:10;;;;;;;5.45;3.30;;;28.80;99.90;;;;;;4793872;29;20515;-92
2022/05/26 14:19:47;;;;;;;6.50;3.00;;;28.80;99.90;;;;;;4793619;29;20421;-91
2022/05/26 14:22:28;;;;;;;8.02;2.70;;;28.70;99.90;;;;;;4794150;29;20027;-93
2022/05/26 14:24:57;;;;;;;5.63;2.80;;;28.30;99.90;;;;;;4793742;29;20050;-93
2022/05/26 14:27:28;;;;;;;3.40;2.40;;;28.10;99.90;;;;;;4793673;29;20042;-92
2022/05/26 14:30:03;;;;;;;6.80;2.92;;;28.20;99.90;;;;;;4793783;29;20035;-91
2022/05/26 14:32:34;;;;;;;3.53;2.72;;;28.60;99.90;;;;;;4793840;29;20035;-91
2022/05/26 14:35:03;;;;;;;7.50;3.25;;;28.70;99.90;;;;;;4794011;29;20458;-92
2022/05/26 14:37:30;;;;;;;6.93;2.88;;;29.00;99.90;;;;;;4793779;29;20084;-91
2022/05/26 14:39:57;;;;;;;8.73;3.10;;;28.90;99.90;;;;;;4793445;29;20121;-92
2022/05/26 14:42:30;;;;;;;4.22;2.55;;;28.70;99.90;;;;;;4794028;29;20027;-90
2022/05/26 14:44:58;;;;;;;4.43;2.83;;;28.50;99.90;;;;;;4793392;29;20042;-90
2022/05/26 14:47:24;;;;;;;4.22;3.15;;;28.50;99.90;;;;;;4793207;29;20512;-89
2022/05/26 14:49:51;;;;;;;6.82;2.90;;;28.70;99.90;;;;;;4793301;29;20161;-90
2022/05/26 14:52:23;;;;;;;5.22;3.90;;;28.80;99.90;;;;;;4793375;29;20042;-90
2022/05/26 14:57:34;;;;;;;6.45;2.80;;;28.50;99.90;;;;;;4793139;29;20045;-91
2022/05/26 15:00:01;;;;;;;8.95;3.58;;;28.40;99.90;;;;;;4793097;29;20405;-91
2022/05/26 15:02:27;;;;;;;7.70;3.28;;;28.70;99.90;;;;;;4793337;29;20508;-90
2022/05/26 15:04:54;;;;;;;9.75;3.72;;;28.70;99.90;;;;;;4793576;29;20026;-90
2022/05/26 15:07:20;;;;;;;6.72;3.10;;;28.60;99.90;;;;;;4792182;29;20050;-90
2022/05/26 15:09:48;;;;;;;5.82;3.50;;;28.60;99.90;;;;;;4793119;29;20109;-91
2022/05/26 15:12:15;;;;;;;8.73;3.80;;;28.50;99.90;;;;;;4793237;29;20039;-90
2022/05/26 15:14:42;;;;;;;3.95;2.83;;;28.60;99.90;;;;;;4777938;29;20050;-90
2022/05/26 15:17:16;;;;;;;7.10;3.60;;;28.60;99.90;;;;;;4793011;29;20034;-91
2022/05/26 15:19:52;;;;;;;9.15;3.67;;;28.80;99.90;;;;;;4792569;29;20148;-89
2022/05/26 15:22:20;;;;;;;8.88;3.60;;;28.70;99.90;;;;;;4792806;29;20042;-90
2022/05/26 15:24:48;;;;;;;4.07;3.67;;;28.90;99.90;;;;;;4792695;29;20030;-91
2022/05/26 15:27:18;;;;;;;4.43;3.10;;;28.90;99.90;;;;;;4792604;29;20042;-91
2022/05/26 15:29:44;;;;;;;3.58;3.17;;;28.60;99.90;;;;;;4792615;29;20031;-90
2022/05/26 15:32:12;;;;;;;3.92;2.90;;;28.60;99.90;;;;;;4793024;29;20039;-90
2022/05/26 15:34:41;;;;;;;6.63;3.10;;;28.50;99.90;;;;;;4793950;29;20031;-90
2022/05/26 15:37:08;;;;;;;7.25;3.40;;;28.30;99.90;;;;;;4793076;29;20069;-89
2022/05/26 15:39:35;;;;;;;4.82;2.67;;;28.40;99.90;;;;;;4793106;29;20039;-89
2022/05/26 15:42:01;;;;;;;4.05;2.75;;;28.40;99.90;;;;;;4800513;24;21264;-89
2022/05/26 15:44:28;;;;;;;6.00;3.08;;;27.90;99.90;;;;;;4789439;29;20099;-89
2022/05/26 15:47:01;;;;;;;4.57;2.90;;;27.70;99.90;;;;;;4791932;29;20043;-89
2022/05/26 15:49:28;;;;;;;4.80;2.55;;;27.70;99.90;;;;;;4792584;29;20409;-90
2022/05/26 15:52:01;;;;;;;8.30;2.67;;;27.60;99.90;;;;;;4793823;29;20031;-93
2022/05/26 15:54:28;;;;;;;4.03;2.60;;;27.70;99.90;;;;;;4795824;29;20035;-90
2022/05/26 15:56:56;;;;;;;5.93;2.70;;;27.70;99.90;;;;;;4792575;29;20038;-90
2022/05/26 15:59:26;;;;;;;8.98;2.70;;;27.60;99.90;;;;;;4792400;29;20041;-92
2022/05/26 16:01:53;;;;;;;6.78;2.83;;;27.70;99.90;;;;;;4792776;29;20027;-92
2022/05/26 16:04:19;;;;;;;5.10;2.67;;;27.70;99.90;;;;;;4793738;29;20389;-90
2022/05/26 16:06:46;;;;;;;3.78;2.35;;;27.40;99.90;;;;;;4792956;29;20043;-90
2022/05/26 16:09:13;;;;;;;13.60;3.00;;;27.40;99.90;;;;;;4792246;29;20027;-90
2022/05/26 16:11:43;;;;;;;5.30;2.45;;;27.40;99.90;;;;;;4793345;29;20039;-90
2022/05/26 16:14:15;;;;;;;4.78;2.85;;;27.30;99.90;;;;;;4792344;29;20039;-90
2022/05/26 16:16:41;;;;;;;7.78;2.33;;;27.20;99.90;;;;;;4799123;29;20049;-92
2022/05/26 16:19:07;;;;;;;8.07;2.75;;;27.10;99.90;;;;;;4793151;29;20045;-91
2022/05/26 16:21:35;;;;;;;4.38;1.90;;;27.10;99.90;;;;;;4793295;29;20038;-92
2022/05/26 16:24:04;;;;;;;4.30;2.30;;;27.10;99.90;;;;;;4799001;29;20072;-89
2022/05/26 16:26:31;;;;;;;6.18;2.10;;;27.00;99.90;;;;;;4806725;29;20042;-92
2022/05/26 16:28:58;;;;;;;15.55;2.15;;;26.90;99.90;;;;;;4791965;29;20051;-91
2022/05/26 16:31:25;;;;;;;16.45;2.70;;;26.90;99.90;;;;;;4789746;29;20038;-91
2022/05/26 16:33:52;;;;;;;4.35;2.00;;;26.90;99.90;;;;;;4782027;29;20107;-93
2022/05/26 16:39:52;;;;;;;5.25;2.30;;;26.80;99.90;;;;;;4814433;29;20508;-94
2022/05/26 16:42:19;;;;;;;3.35;2.00;;;26.80;99.90;;;;;;4799818;30;20407;-92
2022/05/26 16:44:45;;;;;;;6.82;2.65;;;26.70;99.90;;;;;;4777603;30;20035;-92
2022/05/26 16:47:13;;;;;;;6.90;3.28;;;26.80;99.90;;;;;;4765032;30;20459;-91
2022/05/26 16:49:40;;;;;;;6.97;2.35;;;26.80;99.90;;;;;;4780163;30;20024;-93
2022/05/26 16:52:07;;;;;;;6.00;2.35;;;26.80;99.90;;;;;;4778489;30;20069;-91
2022/05/26 16:54:40;;;;;;;6.82;2.35;;;26.80;99.90;;;;;;4776852;30;20027;-93
2022/05/26 16:57:08;;;;;;;16.42;3.25;;;26.80;99.90;;;;;;4774533;30;20066;-92
2022/05/26 16:59:35;;;;;;;8.25;2.97;;;26.70;99.90;;;;;;4774045;30;20035;-92
2022/05/26 17:02:01;;;;;;;4.97;2.65;;;26.60;99.90;;;;;;4774139;30;20043;-91
2022/05/26 17:04:28;;;;;;;6.63;3.97;;;26.60;99.90;;;;;;4774569;30;20192;-91
2022/05/26 17:06:55;;;;;;;10.48;4.70;;;26.70;99.90;;;;;;4773711;30;20067;-92
2022/05/26 17:09:27;;;;;;;10.48;4.57;;;26.80;99.90;;;;;;4774181;30;20489;-92
2022/05/26 17:11:54;;;;;;;8.07;4.53;;;27.00;99.90;;;;;;4759354;30;20093;-91
2022/05/26 17:22:40;;;;;;;9.32;4.70;;;27.10;99.90;;;;;;4773653;30;20035;-92
2022/05/26 17:25:08;;;;;;;8.15;5.15;;;27.00;99.90;;;;;;4773721;30;20163;-91
2022/05/26 17:27:42;;;;;;;7.63;5.45;;;26.90;99.90;;;;;;4773680;30;20055;-92
2022/05/26 17:30:10;;;;;;;;;;;26.90;99.90;;;;;;4776307;30;20061;-92
2022/05/26 17:32:37;;;;;;;18.05;6.22;;;26.80;99.90;;;;;;4776854;30;19913;-91
2022/05/26 17:35:05;;;;;;;12.48;5.60;;;26.80;99.90;;;;;;4776859;30;20440;-91
2022/05/26 17:37:32;;;;;;;13.15;6.15;;;26.80;99.90;;;;;;4777053;30;20419;-92
2022/05/26 17:39:59;;;;;;;13.98;7.20;;;26.60;99.90;;;;;;4776861;30;20043;-92
2022/05/26 17:42:26;;;;;;;16.25;8.63;;;26.60;99.90;;;;;;4776594;30;20055;-91
2022/05/26 17:44:52;;;;;;;14.40;7.93;;;26.50;99.90;;;;;;4791660;30;20035;-91
2022/05/26 17:47:19;;;;;;;13.45;8.05;;;26.40;99.90;;;;;;4791454;30;20506;-93
2022/05/26 17:49:45;;;;;;;14.50;8.00;;;26.30;99.90;;;;;;4791482;30;20035;-91
2022/05/26 17:52:17;;;;;;;13.70;7.40;;;26.30;99.90;;;;;;4776553;30;20106;-92
2022/05/26 17:54:58;;;;;;;15.98;6.40;;;26.20;99.90;;;;;;4794643;30;20397;-90
2022/05/26 17:57:24;;;;;;;16.92;6.57;;;26.00;99.90;;;;;;4780748;30;20035;-92
2022/05/26 18:02:38;;;;;;;14.50;5.72;;;25.90;99.90;;;;;;4796201;30;20058;-92
2022/05/26 18:05:08;;;;;;;9.88;5.07;;;25.80;99.90;;;;;;4783325;30;20035;-92
2022/05/26 18:07:35;;;;;;;9.75;5.03;;;25.60;99.90;;;;;;4781866;29;20048;-92
2022/05/26 18:10:03;;;;;;;21.27;5.45;;;25.50;99.90;;;;;;4782146;29;20039;-92
2022/05/26 18:12:30;;;;;;;13.63;4.82;;;25.50;99.90;;;;;;4796764;29;20038;-92